Upper Freehold Township, New Jersey
Current Conditions -  °F | °C
As of 8:58 AM on Saturday 25 Oct 2014 (Local Time) from KWRI Reporting Station
Haze Haze  
Wind Chill: 52°   Ceiling: Unl
Heat Index: 52°   Visibility: 1.5mi
Dew Point: 36°   Wind: 7mph
Humidity: 54%   Direction: 300°WNW
Pressure: 29.88"   Gusts: NA
Location:  40.1405°N, 74.4965°W
Report Text: KWRI 251258Z AUTO 30006KT 1 1/2SM HZ CLR 11/02 A2988 RMK AO2 SLP122 $
Loading
Personal Weather Stations






























Interactive Weather Map
Tropical Storm Tracking
New forecast layout! Learn more

10-Day Weather Forecast

Advertisements
Track Severe Weather on mobile